Time;durP1;ratioP1;P1;durP2;ratioP2;P2;SDS_P1;SDS_P2;PMS_P1;PMS_P2;Temp;Humidity;BMP_temperature;BMP_pressure;BME280_temperature;BME280_humidity;BME280_pressure;Samples;Min_cycle;Max_cycle;Signal;HPM_P1;HPM_P2
2023/06/28 00:00:49;;;;;;;10.90;4.53;;;;;;;14.64;100.00;101826.66;4965173;28;20062;-81
2023/06/28 00:03:16;;;;;;;11.57;4.78;;;;;;;14.65;100.00;101829.31;4939522;28;20066;-81
2023/06/28 00:05:44;;;;;;;10.07;3.80;;;;;;;14.64;100.00;101830.19;4968333;28;20538;-81
2023/06/28 00:08:12;;;;;;;10.98;3.97;;;;;;;14.61;100.00;101833.72;4936088;29;20573;-80
2023/06/28 00:10:40;;;;;;;9.88;4.00;;;;;;;14.60;100.00;101844.34;4952080;28;20058;-81
2023/06/28 00:13:08;;;;;;;8.80;3.78;;;;;;;14.58;100.00;101838.13;4952008;29;20062;-81
2023/06/28 00:15:36;;;;;;;7.93;3.72;;;;;;;14.57;100.00;101834.63;4932577;29;20136;-80
2023/06/28 00:18:03;;;;;;;8.38;3.90;;;;;;;14.57;100.00;101833.69;4920459;28;20058;-80
2023/06/28 00:20:30;;;;;;;11.10;3.80;;;;;;;14.58;100.00;101832.84;4940103;29;20051;-81
2023/06/28 00:22:59;;;;;;;10.35;3.85;;;;;;;14.58;100.00;101835.50;4936760;29;20061;-81
2023/06/28 00:25:27;;;;;;;6.47;3.40;;;;;;;14.56;100.00;101827.47;4925955;28;20070;-82
2023/06/28 00:27:54;;;;;;;8.52;3.65;;;;;;;14.58;100.00;101827.53;4935921;29;20058;-80
2023/06/28 00:30:21;;;;;;;9.27;4.30;;;;;;;14.55;100.00;101833.66;4982524;28;20470;-80
2023/06/28 00:32:49;;;;;;;9.70;3.53;;;;;;;14.53;100.00;101826.59;4934845;28;20396;-80
2023/06/28 00:35:17;;;;;;;5.95;3.63;;;;;;;14.53;100.00;101831.91;4947939;29;20039;-81
2023/06/28 00:37:45;;;;;;;6.53;3.67;;;;;;;14.52;100.00;101832.78;4959957;28;20058;-80
2023/06/28 00:40:12;;;;;;;6.85;3.75;;;;;;;14.51;100.00;101836.31;4919280;28;21665;-81
2023/06/28 00:42:39;;;;;;;10.68;3.90;;;;;;;14.48;100.00;101831.00;4917120;29;20525;-80
2023/06/28 00:45:12;;;;;;;8.63;3.88;;;;;;;14.44;100.00;101840.69;4964043;28;20051;-81
2023/06/28 00:47:42;;;;;;;9.73;3.80;;;;;;;14.41;100.00;101844.25;4905914;29;20047;-81
2023/06/28 00:50:10;;;;;;;;;;;;;;;14.40;100.00;101844.22;4932860;29;20129;-80
2023/06/28 00:52:39;;;;;;;10.77;3.70;;;;;;;14.36;100.00;101848.63;4966569;28;20707;-81
2023/06/28 00:55:07;;;;;;;11.35;4.10;;;;;;;14.36;100.00;101843.31;4967543;28;20078;-80
2023/06/28 00:57:34;;;;;;;11.07;4.07;;;;;;;14.35;100.00;101846.88;4944597;28;20039;-82
2023/06/28 01:00:05;;;;;;;7.43;3.50;;;;;;;14.35;100.00;101843.34;4934104;29;20050;-81
2023/06/28 01:02:32;;;;;;;10.90;3.60;;;;;;;14.34;100.00;101839.78;4895653;28;23689;-81
2023/06/28 01:05:00;;;;;;;6.97;4.45;;;;;;;14.35;100.00;101841.56;4950829;28;20051;-80
2023/06/28 01:07:35;;;;;;;8.88;3.60;;;;;;;14.36;100.00;101835.38;4949342;28;20146;-81
2023/06/28 01:10:04;;;;;;;8.70;4.57;;;;;;;14.38;100.00;101833.59;4948490;29;20052;-80
2023/06/28 01:12:35;;;;;;;9.55;4.15;;;;;;;14.38;100.00;101844.22;4926934;28;20067;-80
2023/06/28 01:15:03;;;;;;;8.93;4.20;;;;;;;14.37;100.00;101834.50;4958526;28;20047;-80
2023/06/28 01:17:31;;;;;;;7.72;3.67;;;;;;;14.37;100.00;101839.81;4928984;28;21383;-82
2023/06/28 01:19:58;;;;;;;7.40;4.00;;;;;;;14.37;100.00;101838.94;4937341;29;20051;-80
2023/06/28 01:22:31;;;;;;;11.38;4.63;;;;;;;14.34;100.00;101834.47;4930550;29;20047;-81
2023/06/28 01:24:59;;;;;;;9.63;3.88;;;;;;;14.33;100.00;101827.44;4945665;29;20055;-80
2023/06/28 01:27:28;;;;;;;13.40;4.68;;;;;;;14.33;100.00;101823.88;4948719;29;20047;-83
2023/06/28 01:29:57;;;;;;;9.93;3.63;;;;;;;14.32;100.00;101816.81;4936092;29;20047;-80
2023/06/28 01:32:24;;;;;;;9.98;3.85;;;;;;;14.32;100.00;101827.41;4935557;29;20051;-81
2023/06/28 01:34:54;;;;;;;8.93;4.72;;;;;;;14.33;100.00;101831.81;4919674;28;20059;-82
2023/06/28 01:37:22;;;;;;;13.70;4.13;;;;;;;14.33;100.00;101827.44;4950418;29;20051;-81
2023/06/28 01:39:52;;;;;;;13.23;4.35;;;;;;;14.36;100.00;101830.06;4969511;28;20036;-82
2023/06/28 01:42:21;;;;;;;6.15;3.72;;;;;;;14.38;100.00;101828.31;4932714;29;20051;-82
2023/06/28 01:44:49;;;;;;;5.80;3.72;;;;;;;14.39;100.00;101830.09;4946405;28;20051;-82
2023/06/28 01:47:16;;;;;;;10.00;4.25;;;;;;;14.41;100.00;101830.97;4917636;29;20055;-82
2023/06/28 01:49:45;;;;;;;10.80;4.20;;;;;;;14.42;100.00;101827.47;4934177;28;20058;-81
2023/06/28 01:52:12;;;;;;;5.70;3.70;;;;;;;14.43;100.00;101829.22;4961997;28;20046;-80
2023/06/28 01:54:40;;;;;;;9.73;4.15;;;;;;;14.44;100.00;101827.44;4951016;29;20059;-81
2023/06/28 01:57:07;;;;;;;7.78;3.88;;;;;;;14.46;100.00;101827.44;4936984;29;20043;-80
2023/06/28 01:59:36;;;;;;;7.43;3.95;;;;;;;14.45;100.00;101826.56;4958449;28;20062;-81
2023/06/28 02:02:04;;;;;;;8.48;4.55;;;;;;;14.43;100.00;101818.59;4936372;29;20055;-81
2023/06/28 02:04:32;;;;;;;7.63;3.83;;;;;;;14.45;100.00;101820.41;4948860;29;20051;-81
2023/06/28 02:06:59;;;;;;;9.25;4.35;;;;;;;14.45;100.00;101825.69;4905953;29;20047;-81
2023/06/28 02:09:28;;;;;;;6.05;3.88;;;;;;;14.43;100.00;101837.16;4961222;28;20061;-80
2023/06/28 02:11:56;;;;;;;11.27;4.32;;;;;;;14.42;100.00;101827.47;4938453;29;20054;-83
2023/06/28 02:14:23;;;;;;;10.25;4.60;;;;;;;14.39;100.00;101827.44;4936136;29;20400;-81
2023/06/28 02:16:52;;;;;;;13.45;4.90;;;;;;;14.39;100.00;101824.78;4948170;28;20479;-81
2023/06/28 02:19:20;;;;;;;13.63;4.30;;;;;;;14.40;100.00;101828.31;4951216;29;20062;-81
2023/06/28 02:21:47;;;;;;;8.90;3.90;;;;;;;14.40;100.00;101818.63;4942305;28;20059;-81
2023/06/28 02:24:18;;;;;;;7.45;4.25;;;;;;;14.40;100.00;101808.00;4946582;29;20082;-81
2023/06/28 02:26:46;;;;;;;11.35;4.75;;;;;;;14.40;100.00;101810.66;4939252;29;20059;-81
2023/06/28 02:29:16;;;;;;;8.50;4.53;;;;;;;14.40;100.00;101807.09;4937583;29;20062;-81
2023/06/28 02:31:44;;;;;;;7.32;4.38;;;;;;;14.39;100.00;101816.84;4964550;28;20034;-80
2023/06/28 02:34:11;;;;;;;9.15;4.57;;;;;;;14.39;100.00;101808.88;4957840;28;20055;-81
2023/06/28 02:36:39;;;;;;;10.82;4.78;;;;;;;14.38;100.00;101809.75;4923074;28;20047;-80
2023/06/28 02:39:07;;;;;;;7.35;3.90;;;;;;;14.37;100.00;101801.81;4952557;29;20059;-81
2023/06/28 02:41:34;;;;;;;10.32;4.32;;;;;;;14.37;100.00;101812.41;4936382;29;20499;-81
2023/06/28 02:44:01;;;;;;;7.57;4.60;;;;;;;14.33;100.00;101807.97;4970886;28;20055;-81
2023/06/28 02:46:29;;;;;;;12.65;4.93;;;;;;;14.34;100.00;101807.97;4951447;29;20055;-80
2023/06/28 02:48:56;;;;;;;7.40;4.10;;;;;;;14.36;100.00;101806.22;4955457;28;20426;-81
2023/06/28 02:51:24;;;;;;;10.80;4.45;;;;;;;14.38;100.00;101808.88;4911450;28;20058;-81
2023/06/28 02:53:51;;;;;;;15.75;4.32;;;;;;;14.39;100.00;101814.19;4935795;29;20044;-81
2023/06/28 02:56:19;;;;;;;8.20;4.60;;;;;;;14.40;100.00;101808.00;4966927;28;20058;-82
2023/06/28 02:59:06;;;;;;;7.15;3.80;;;;;;;14.42;100.00;101800.94;4967348;28;20043;-81
2023/06/28 03:01:35;;;;;;;8.98;4.50;;;;;;;14.45;100.00;101796.53;4936664;29;20051;-81
2023/06/28 03:04:04;;;;;;;9.32;4.35;;;;;;;14.47;100.00;101792.09;4954884;28;20549;-80
2023/06/28 03:06:32;;;;;;;11.43;4.50;;;;;;;14.48;100.00;101800.06;4944507;29;20418;-81
2023/06/28 03:08:59;;;;;;;14.77;4.00;;;;;;;14.50;100.00;101797.41;4938099;28;20054;-80
2023/06/28 03:11:27;;;;;;;11.00;5.07;;;;;;;14.49;100.00;101801.81;4950387;28;20066;-80
2023/06/28 03:13:55;;;;;;;9.32;4.32;;;;;;;14.49;100.00;101808.91;4938274;29;20411;-81
2023/06/28 03:16:23;;;;;;;10.25;4.68;;;;;;;14.49;100.00;101800.94;4949958;29;20083;-81
2023/06/28 03:18:50;;;;;;;13.60;4.18;;;;;;;14.48;100.00;101805.38;4954009;28;20063;-81
2023/06/28 03:21:18;;;;;;;11.73;5.38;;;;;;;14.48;100.00;101807.13;4957574;28;20053;-79
2023/06/28 03:23:45;;;;;;;8.40;4.18;;;;;;;14.49;100.00;101808.91;4935152;28;20050;-81
2023/06/28 03:26:13;;;;;;;11.82;5.15;;;;;;;14.51;100.00;101799.19;4967429;28;20047;-80
2023/06/28 03:28:42;;;;;;;8.73;4.70;;;;;;;14.52;100.00;101807.16;4936748;29;20062;-80
2023/06/28 03:31:09;;;;;;;8.02;4.97;;;;;;;14.54;100.00;101816.00;4936619;29;20051;-81
2023/06/28 03:33:37;;;;;;;9.65;4.57;;;;;;;14.57;100.00;101807.19;4959685;28;20051;-79
2023/06/28 03:36:05;;;;;;;8.68;4.32;;;;;;;14.59;100.00;101803.66;4956992;28;20054;-81
2023/06/28 03:38:33;;;;;;;9.00;3.85;;;;;;;14.61;100.00;101801.91;4913068;28;20055;-80
2023/06/28 03:41:02;;;;;;;10.77;4.60;;;;;;;14.64;100.00;101798.34;4912703;29;20422;-81
2023/06/28 03:43:29;;;;;;;8.60;4.20;;;;;;;14.68;100.00;101807.22;4946442;29;20530;-81
2023/06/28 03:45:57;;;;;;;6.50;3.80;;;;;;;14.69;100.00;101809.88;4946138;29;20507;-81
2023/06/28 03:48:24;;;;;;;9.77;3.97;;;;;;;14.71;100.00;101808.09;4983505;28;20046;-81
2023/06/28 03:50:51;;;;;;;9.15;3.80;;;;;;;14.73;100.00;101808.09;4954597;28;20055;-81
2023/06/28 03:53:19;;;;;;;11.82;4.68;;;;;;;14.73;100.00;101808.97;4923398;28;20055;-81
2023/06/28 03:55:48;;;;;;;15.70;5.10;;;;;;;14.75;100.00;101809.00;4954027;28;20667;-80
2023/06/28 03:58:16;;;;;;;12.15;3.72;;;;;;;14.76;100.00;101806.34;4936306;29;20062;-81
2023/06/28 04:00:45;;;;;;;7.70;3.90;;;;;;;14.77;100.00;101804.56;4938494;29;20043;-81
2023/06/28 04:03:13;;;;;;;7.10;3.88;;;;;;;14.79;100.00;101800.16;4924807;29;21001;-80
2023/06/28 04:05:41;;;;;;;11.48;3.95;;;;;;;14.80;100.00;101799.25;4951074;28;20047;-82
2023/06/28 04:08:09;;;;;;;10.77;4.47;;;;;;;14.82;100.00;101794.84;4948629;28;20054;-81
2023/06/28 04:10:38;;;;;;;8.88;4.05;;;;;;;14.85;100.00;101789.53;4949527;28;20039;-81
2023/06/28 04:13:06;;;;;;;10.07;4.70;;;;;;;14.87;100.00;101794.84;4951165;29;20066;-81
2023/06/28 04:15:33;;;;;;;7.57;4.35;;;;;;;14.86;100.00;101793.06;4950967;28;20055;-81
2023/06/28 04:18:01;;;;;;;10.75;4.47;;;;;;;14.85;100.00;101799.25;4919334;29;20047;-79
2023/06/28 04:20:29;;;;;;;12.35;4.40;;;;;;;14.84;100.00;101798.38;4932960;29;20051;-81
2023/06/28 04:22:57;;;;;;;11.65;4.15;;;;;;;14.85;100.00;101794.84;4915348;28;20050;-81
2023/06/28 04:25:24;;;;;;;9.38;3.67;;;;;;;14.86;100.00;101801.94;4899040;28;20066;-82
2023/06/28 04:27:52;;;;;;;10.38;4.20;;;;;;;14.85;100.00;101794.84;4920708;29;20047;-81
2023/06/28 04:30:21;;;;;;;12.63;4.55;;;;;;;14.87;100.00;101786.88;4948498;29;20577;-82
2023/06/28 04:32:48;;;;;;;8.25;5.25;;;;;;;14.89;100.00;101798.38;4950211;28;20506;-80
2023/06/28 04:35:18;;;;;;;10.40;5.22;;;;;;;14.93;100.00;101805.44;4930747;29;20062;-80
2023/06/28 04:37:47;;;;;;;15.30;4.22;;;;;;;14.93;100.00;101802.78;4934521;29;20047;-80
2023/06/28 04:40:16;;;;;;;11.15;5.88;;;;;;;14.95;100.00;101790.41;4943792;28;20518;-81
2023/06/28 04:42:43;;;;;;;8.90;4.93;;;;;;;14.98;100.00;101785.13;4938244;29;20051;-83
2023/06/28 04:45:12;;;;;;;9.65;4.70;;;;;;;15.02;100.00;101792.19;4933095;29;20063;-81
2023/06/28 04:47:39;;;;;;;10.07;4.53;;;;;;;15.04;100.00;101795.72;4953961;29;20050;-81
2023/06/28 04:50:08;;;;;;;7.57;4.30;;;;;;;15.07;100.00;101778.94;4924705;28;20538;-81
2023/06/28 04:52:35;;;;;;;13.82;4.68;;;;;;;15.10;100.00;101786.88;4971174;28;20043;-80
2023/06/28 04:55:03;;;;;;;10.32;4.47;;;;;;;15.12;100.00;101793.06;4944699;28;20050;-80
2023/06/28 04:57:30;;;;;;;8.43;4.07;;;;;;;15.15;100.00;101779.81;4914536;28;20830;-79
2023/06/28 04:59:57;;;;;;;7.25;4.00;;;;;;;15.18;100.00;101787.78;4962342;28;20047;-80
2023/06/28 05:02:25;;;;;;;7.45;3.97;;;;;;;15.21;100.00;101783.31;4932734;29;20392;-81
2023/06/28 05:04:54;;;;;;;8.98;4.25;;;;;;;15.21;100.00;101774.47;4955696;28;20051;-79
2023/06/28 05:07:22;;;;;;;12.45;5.15;;;;;;;15.21;100.00;101780.66;4949102;29;20047;-80
2023/06/28 05:09:49;;;;;;;5.07;3.78;;;;;;;15.21;100.00;101782.44;4953366;28;20036;-82
2023/06/28 05:12:17;;;;;;;9.00;4.63;;;;;;;15.19;100.00;101784.22;4897290;28;20047;-82
2023/06/28 05:14:45;;;;;;;7.15;3.83;;;;;;;15.18;100.00;101791.31;4953924;28;20054;-80
2023/06/28 05:17:12;;;;;;;8.15;4.10;;;;;;;15.17;100.00;101791.28;4947988;29;20051;-88
2023/06/28 05:19:48;;;;;;;10.70;4.15;;;;;;;15.17;100.00;101792.16;4946637;29;20538;-87
2023/06/28 05:22:15;;;;;;;12.00;4.25;;;;;;;15.20;100.00;101786.88;4942371;28;20047;-88
2023/06/28 05:24:44;;;;;;;6.15;3.40;;;;;;;15.23;100.00;101785.09;4944852;28;20422;-88
2023/06/28 05:27:12;;;;;;;6.95;4.07;;;;;;;15.25;100.00;101778.88;4935591;28;20451;-86
2023/06/28 05:29:41;;;;;;;7.53;3.72;;;;;;;15.29;100.00;101777.13;4950093;28;20050;-86
2023/06/28 05:32:27;;;;;;;12.85;3.42;;;;;;;15.33;100.00;101776.22;4955101;29;20044;-87
2023/06/28 05:35:06;;;;;;;8.90;3.25;;;;;;;15.35;100.00;101777.13;4983107;28;20522;-87
2023/06/28 05:37:54;;;;;;;13.35;4.70;;;;;;;15.38;100.00;101772.66;4956614;28;20127;-86
2023/06/28 05:40:57;;;;;;;8.00;3.60;;;;;;;15.40;100.00;101778.84;4951787;28;20063;-86
2023/06/28 05:44:04;;;;;;;7.40;3.78;;;;;;;15.40;100.00;101777.97;4950774;28;20085;-85
2023/06/28 05:46:33;;;;;;;6.55;3.45;;;;;;;15.43;100.00;101775.34;4943650;29;20059;-86
2023/06/28 05:49:06;;;;;;;7.03;3.22;;;;;;;15.44;100.00;101769.13;4964616;28;20360;-85
2023/06/28 05:51:34;;;;;;;6.88;3.30;;;;;;;15.47;100.00;101770.91;4982869;28;20083;-84
2023/06/28 05:54:02;;;;;;;6.00;3.20;;;;;;;15.51;100.00;101770.00;4970109;28;20043;-85
2023/06/28 05:56:30;;;;;;;6.20;3.17;;;;;;;15.52;100.00;101770.00;4951208;28;20055;-86
2023/06/28 05:58:58;;;;;;;6.15;3.60;;;;;;;15.54;100.00;101775.31;4938860;28;20050;-86
2023/06/28 06:01:25;;;;;;;6.40;3.20;;;;;;;15.55;100.00;101774.41;4959513;28;20066;-86
2023/06/28 06:03:53;;;;;;;6.25;3.00;;;;;;;15.60;100.00;101777.94;4945007;28;20051;-87
2023/06/28 06:06:22;;;;;;;7.93;4.07;;;;;;;15.67;100.00;101770.81;4941816;29;20062;-84
2023/06/28 06:08:50;;;;;;;7.05;3.22;;;;;;;15.73;100.00;101770.84;4944728;28;20058;-84
2023/06/28 06:11:17;;;;;;;5.35;3.20;;;;;;;15.77;100.00;101777.94;4938993;29;20062;-86
2023/06/28 06:13:46;;;;;;;12.35;4.68;;;;;;;15.77;100.00;101780.59;4939899;29;20043;-82
2023/06/28 06:16:14;;;;;;;6.13;2.90;;;;;;;15.77;100.00;101781.47;4951505;28;20062;-86
2023/06/28 06:18:44;;;;;;;6.57;3.38;;;;;;;15.81;100.00;101776.16;4925388;29;20059;-85
2023/06/28 06:21:13;;;;;;;3.70;2.72;;;;;;;15.85;100.00;101781.44;4922009;29;20430;-85
2023/06/28 06:23:40;;;;;;;4.25;3.13;;;;;;;15.91;100.00;101780.53;4924458;29;20051;-85
2023/06/28 06:26:12;;;;;;;6.75;3.45;;;;;;;15.96;100.00;101773.44;4951981;28;20078;-80
2023/06/28 06:28:39;;;;;;;8.45;3.13;;;;;;;16.03;100.00;101769.84;4959758;28;20190;-86
2023/06/28 06:31:13;;;;;;;2.65;2.45;;;;;;;16.08;100.00;101773.34;4924886;28;20048;-86
2023/06/28 06:33:42;;;;;;;5.80;2.72;;;;;;;16.13;100.00;101768.91;4926330;29;20048;-86
2023/06/28 06:36:20;;;;;;;7.80;2.70;;;;;;;16.19;100.00;101768.00;4968300;28;20055;-86
2023/06/28 06:38:48;;;;;;;5.35;2.55;;;;;;;16.25;100.00;101775.03;4950926;28;20055;-87
2023/06/28 06:41:18;;;;;;;2.17;1.98;;;;;;;16.28;100.00;101778.56;4914441;28;20058;-88
2023/06/28 06:43:53;;;;;;;7.13;3.03;;;;;;;16.35;100.00;101777.66;4941809;29;20167;-86
2023/06/28 06:46:21;;;;;;;7.65;2.83;;;;;;;16.40;100.00;101777.63;4937440;28;20051;-86
2023/06/28 06:48:48;;;;;;;6.20;2.78;;;;;;;16.41;100.00;101781.16;4928382;29;20042;-86
2023/06/28 06:51:16;;;;;;;6.35;2.88;;;;;;;16.42;100.00;101783.81;4972907;28;20055;-85
2023/06/28 06:53:46;;;;;;;6.88;2.80;;;;;;;16.35;100.00;101796.28;4945546;28;20050;-85
2023/06/28 06:56:22;;;;;;;4.50;2.25;;;;;;;16.34;100.00;101791.84;4960153;29;20059;-85
2023/06/28 06:58:50;;;;;;;4.95;2.28;;;;;;;16.33;100.00;101786.50;4956863;28;20055;-86
2023/06/28 07:01:19;;;;;;;4.28;2.60;;;;;;;16.36;100.00;101789.16;4924429;28;20051;-86
2023/06/28 07:03:50;;;;;;;10.60;3.90;;;;;;;16.38;100.00;101784.72;4976019;28;20051;-87
2023/06/28 07:06:25;;;;;;;5.35;2.22;;;;;;;16.37;100.00;101780.31;4919922;29;20080;-86
2023/06/28 07:08:52;;;;;;;5.30;2.40;;;;;;;16.41;100.00;101783.81;4936138;29;20051;-86
2023/06/28 07:11:20;;;;;;;4.85;2.95;;;;;;;16.41;100.00;101784.72;4927352;29;20059;-87
2023/06/28 07:13:50;;;;;;;;;;;;;;;16.43;100.00;101785.59;4958140;28;20051;-86
2023/06/28 07:16:19;;;;;;;4.35;1.95;;;;;;;16.48;100.00;101798.84;4966517;28;19930;-87
2023/06/28 07:18:47;;;;;;;3.05;2.08;;;;;;;16.48;100.00;101789.13;4943787;28;20055;-86
2023/06/28 07:21:15;;;;;;;4.30;2.35;;;;;;;16.52;100.00;101793.50;4923270;29;20055;-87
2023/06/28 07:23:42;;;;;;;4.35;2.63;;;;;;;16.60;100.00;101792.56;4942739;29;20058;-85
2023/06/28 07:26:17;;;;;;;6.55;2.85;;;;;;;16.60;100.00;101796.13;4959493;28;20055;-87
2023/06/28 07:28:46;;;;;;;8.80;3.08;;;;;;;16.60;100.00;101793.47;4965853;28;20055;-86
2023/06/28 07:31:14;;;;;;;4.15;2.90;;;;;;;16.66;100.00;101790.75;4957437;29;20054;-86
2023/06/28 07:33:42;;;;;;;6.18;2.90;;;;;;;16.70;100.00;101791.63;4938209;28;20051;-87
2023/06/28 07:36:11;;;;;;;5.90;3.03;;;;;;;16.71;100.00;101798.69;4941846;28;20046;-86
2023/06/28 07:38:39;;;;;;;6.97;3.33;;;;;;;16.69;100.00;101795.16;4959120;29;20079;-85
2023/06/28 07:41:07;;;;;;;4.10;2.88;;;;;;;16.70;100.00;101796.94;4957935;28;20051;-85
2023/06/28 07:43:34;;;;;;;4.25;2.63;;;;;;;16.70;100.00;101802.25;4969765;28;20039;-83
2023/06/28 07:46:03;;;;;;;7.90;3.30;;;;;;;16.78;100.00;101800.41;4974217;28;20054;-85
2023/06/28 07:48:31;;;;;;;7.93;3.70;;;;;;;16.80;100.00;101798.63;4923749;28;20059;-84
2023/06/28 07:51:01;;;;;;;7.47;3.97;;;;;;;16.82;100.00;101799.53;4958536;29;20051;-84
2023/06/28 07:53:29;;;;;;;9.80;4.13;;;;;;;16.87;100.00;101796.84;4956540;28;20091;-87
2023/06/28 07:55:56;;;;;;;8.73;4.63;;;;;;;16.90;100.00;101799.47;4949530;29;20514;-84
2023/06/28 07:58:25;;;;;;;10.55;4.65;;;;;;;16.92;100.00;101803.91;4953910;28;20047;-86
2023/06/28 08:00:52;;;;;;;7.97;4.53;;;;;;;16.95;100.00;101802.97;4933089;29;20059;-87
2023/06/28 08:03:20;;;;;;;8.57;4.82;;;;;;;16.96;100.00;101804.75;4940989;29;20052;-87
2023/06/28 08:05:47;;;;;;;8.07;5.10;;;;;;;16.95;100.00;101802.97;4938823;28;20051;-84
2023/06/28 08:08:20;;;;;;;9.27;5.20;;;;;;;17.00;100.00;101806.50;4950198;29;20082;-85
2023/06/28 08:10:47;;;;;;;8.80;5.13;;;;;;;17.06;100.00;101798.44;4938939;29;20620;-85
2023/06/28 08:13:15;;;;;;;11.18;5.30;;;;;;;17.14;100.00;101801.94;4952099;28;20383;-87
2023/06/28 08:15:42;;;;;;;7.90;4.53;;;;;;;17.19;100.00;101801.03;4961164;28;20059;-86
2023/06/28 08:18:15;;;;;;;8.10;4.65;;;;;;;17.22;100.00;101795.66;4956256;29;20066;-85
2023/06/28 08:20:47;;;;;;;8.35;4.25;;;;;;;17.25;100.00;101808.94;4937485;28;20035;-85
2023/06/28 08:23:31;;;;;;;7.75;4.10;;;;;;;17.25;100.00;101800.97;4974633;28;20179;-86
2023/06/28 08:25:58;;;;;;;6.45;5.07;;;;;;;17.24;100.00;101804.50;4930020;29;20047;-84
2023/06/28 08:28:26;;;;;;;7.50;4.22;;;;;;;17.18;100.00;101804.56;4978610;28;20066;-84
2023/06/28 08:30:54;;;;;;;7.05;4.00;;;;;;;17.13;100.00;101801.97;4942186;28;20034;-86
2023/06/28 08:33:22;;;;;;;8.57;4.20;;;;;;;17.15;100.00;101814.34;4928431;29;20478;-86
2023/06/28 08:35:51;;;;;;;7.03;4.50;;;;;;;17.16;100.00;101804.56;4959172;28;20027;-85
2023/06/28 08:38:20;;;;;;;7.50;4.65;;;;;;;17.15;100.00;101806.38;4987810;28;20047;-86
2023/06/28 08:40:48;;;;;;;10.80;4.82;;;;;;;17.13;100.00;101808.16;4959295;28;20058;-85
2023/06/28 08:43:17;;;;;;;13.45;5.55;;;;;;;17.09;100.00;101805.56;4974732;28;20775;-85
2023/06/28 08:45:45;;;;;;;11.10;6.20;;;;;;;17.07;100.00;101808.22;4923221;28;20400;-88
2023/06/28 08:48:13;;;;;;;10.30;5.60;;;;;;;17.06;100.00;101795.78;4959411;28;20035;-88
2023/06/28 08:50:58;;;;;;;11.90;5.57;;;;;;;17.09;100.00;101802.88;4930476;28;20043;-88
2023/06/28 08:53:29;;;;;;;10.70;5.78;;;;;;;17.09;100.00;101797.56;4941841;29;20042;-88
2023/06/28 08:56:01;;;;;;;9.65;5.65;;;;;;;17.09;100.00;101803.75;4973945;28;20062;-88
2023/06/28 08:58:36;;;;;;;11.15;5.15;;;;;;;17.10;100.00;101801.97;4955784;28;20047;-88
2023/06/28 09:01:04;;;;;;;9.10;5.47;;;;;;;17.10;100.00;101804.63;4953842;28;20051;-89
2023/06/28 09:03:35;;;;;;;11.55;5.45;;;;;;;17.13;100.00;101808.16;4931282;29;20059;-87
2023/06/28 09:06:18;;;;;;;10.23;5.97;;;;;;;17.12;100.00;101803.72;4958325;28;20059;-88
2023/06/28 09:08:46;;;;;;;6.15;5.25;;;;;;;17.16;100.00;101809.91;4963215;28;20066;-88
2023/06/28 09:11:16;;;;;;;9.52;6.13;;;;;;;17.22;100.00;101803.63;4940153;29;20062;-88
2023/06/28 09:13:44;;;;;;;6.50;5.20;;;;;;;17.23;100.00;101800.97;4957223;28;20549;-88
2023/06/28 09:16:22;;;;;;;9.80;5.65;;;;;;;17.26;100.00;101800.94;4936928;28;20617;-88
2023/06/28 09:18:49;;;;;;;6.25;5.68;;;;;;;17.24;100.00;101796.50;4930231;29;20052;-89
2023/06/28 09:21:31;;;;;;;8.23;5.80;;;;;;;17.25;100.00;101798.28;4963592;29;20051;-88
2023/06/28 09:24:00;;;;;;;13.35;6.75;;;;;;;17.24;100.00;101794.75;4936495;28;20047;-89
2023/06/28 09:26:33;;;;;;;10.00;6.10;;;;;;;17.29;100.00;101797.38;4965477;29;20047;-87
2023/06/28 09:29:09;;;;;;;11.98;6.50;;;;;;;17.30;100.00;101804.47;4960021;28;20070;-89
2023/06/28 09:31:41;;;;;;;9.57;6.30;;;;;;;17.32;100.00;101787.56;4966607;28;20050;-88
2023/06/28 09:34:08;;;;;;;11.32;6.13;;;;;;;17.34;100.00;101787.56;5000108;28;20047;-88
2023/06/28 09:36:41;;;;;;;10.50;5.82;;;;;;;17.40;100.00;101792.81;4947634;29;20051;-88
2023/06/28 09:39:12;;;;;;;7.63;5.47;;;;;;;17.47;100.00;101791.84;4933154;29;20039;-89
2023/06/28 09:41:43;;;;;;;8.43;5.70;;;;;;;17.56;100.00;101788.22;4947021;29;20052;-88
2023/06/28 09:44:13;;;;;;;8.45;5.75;;;;;;;17.69;100.00;101788.94;4946581;28;20039;-88
2023/06/28 09:47:01;;;;;;;10.07;5.82;;;;;;;17.72;100.00;101792.47;4951945;28;20059;-88
2023/06/28 09:49:29;;;;;;;9.15;5.53;;;;;;;17.78;100.00;101783.50;4954450;29;20052;-88
2023/06/28 09:52:06;;;;;;;9.55;5.55;;;;;;;17.86;100.00;101781.69;4965863;29;20058;-87
2023/06/28 09:54:45;;;;;;;7.63;4.88;;;;;;;17.88;100.00;101779.88;4943888;28;20047;-88
2023/06/28 09:57:14;;;;;;;7.55;6.20;;;;;;;17.90;100.00;101788.75;4955370;29;20059;-87
2023/06/28 09:59:44;;;;;;;11.50;6.03;;;;;;;17.92;100.00;101786.94;4977079;28;20062;-87
2023/06/28 10:02:16;;;;;;;7.28;5.47;;;;;;;17.94;100.00;101786.94;4962981;29;20719;-87
2023/06/28 10:04:46;;;;;;;10.50;5.97;;;;;;;17.96;100.00;101795.78;4976481;28;20051;-89
2023/06/28 10:07:16;;;;;;;8.87;5.80;;;;;;;17.97;100.00;101786.00;4927757;29;20054;-85
2023/06/28 10:09:46;;;;;;;10.88;6.15;;;;;;;17.98;100.00;101785.09;4940276;28;20051;-83
2023/06/28 10:12:23;;;;;;;11.00;6.70;;;;;;;17.98;100.00;101793.97;4931915;29;20050;-86
2023/06/28 10:14:57;;;;;;;6.80;5.88;;;;;;;18.00;100.00;101796.63;4980615;28;20051;-86
2023/06/28 10:17:35;;;;;;;8.63;6.25;;;;;;;17.97;100.00;101794.88;4965458;28;20162;-87
2023/06/28 10:20:06;;;;;;;9.85;6.47;;;;;;;17.99;100.00;101802.84;4956564;28;20477;-88
2023/06/28 10:22:34;;;;;;;9.13;6.53;;;;;;;17.96;100.00;101789.53;4983704;28;20070;-88
2023/06/28 10:25:02;;;;;;;11.82;5.70;;;;;;;17.90;100.00;101804.75;4928768;28;20066;-89
2023/06/28 10:27:33;;;;;;;7.75;5.80;;;;;;;17.86;100.00;101799.44;4963730;29;20035;-88
2023/06/28 10:30:02;;;;;;;9.73;6.85;;;;;;;17.85;100.00;101801.25;4964412;28;20031;-87
2023/06/28 10:32:32;;;;;;;9.30;6.15;;;;;;;17.88;100.00;101801.22;4959867;28;20058;-87
2023/06/28 10:35:03;;;;;;;;;;;;;;;17.89;100.00;101797.63;4928016;28;20067;-87
2023/06/28 10:37:31;;;;;;;8.00;5.85;;;;;;;17.90;100.00;101796.75;4963105;28;20016;-87
2023/06/28 10:40:05;;;;;;;8.43;6.60;;;;;;;17.94;100.00;101800.25;4942532;28;22122;-88
2023/06/28 10:42:41;;;;;;;12.98;5.75;;;;;;;17.94;100.00;101792.25;4966489;28;20395;-88
2023/06/28 10:45:10;;;;;;;12.57;5.57;;;;;;;17.97;100.00;101789.53;4973910;28;20062;-86
2023/06/28 10:47:54;;;;;;;9.43;6.35;;;;;;;17.97;100.00;101789.53;4942437;29;20487;-86
2023/06/28 10:50:23;;;;;;;9.27;7.07;;;;;;;17.95;100.00;101791.34;4938216;28;20059;-86
2023/06/28 10:52:57;;;;;;;7.82;6.22;;;;;;;17.96;100.00;101786.88;4953043;28;20047;-86
2023/06/28 10:56:02;;;;;;;10.45;6.47;;;;;;;17.98;100.00;101793.09;4955572;28;20522;-87
2023/06/28 10:58:37;;;;;;;7.20;6.30;;;;;;;18.00;100.00;101788.63;4963730;28;20051;-87
2023/06/28 11:01:07;;;;;;;9.93;6.90;;;;;;;17.99;100.00;101790.38;4966609;28;20036;-88
2023/06/28 11:03:43;;;;;;;10.48;7.78;;;;;;;17.96;100.00;101793.13;4950847;29;20059;-84
2023/06/28 11:06:13;;;;;;;8.20;6.05;;;;;;;17.91;100.00;101797.63;4965506;28;20059;-87
2023/06/28 11:08:43;;;;;;;9.85;7.35;;;;;;;17.89;100.00;101786.97;4965913;28;20063;-88
2023/06/28 11:11:35;;;;;;;7.85;7.05;;;;;;;17.89;100.00;101797.63;4962692;28;20053;-88
2023/06/28 11:14:25;;;;;;;11.07;7.40;;;;;;;17.87;100.00;101799.44;4952018;29;20231;-87
2023/06/28 11:17:19;;;;;;;10.18;7.80;;;;;;;17.87;100.00;101791.44;4953346;29;20051;-87
2023/06/28 11:19:48;;;;;;;8.48;7.63;;;;;;;17.91;100.00;101794.94;4961900;29;20055;-88
2023/06/28 11:22:18;;;;;;;;;;;;;;;17.92;100.00;101797.59;4958458;28;20058;-87
2023/06/28 11:24:45;;;;;;;11.45;8.80;;;;;;;17.93;100.00;101799.34;4940423;29;19934;-87
2023/06/28 11:27:21;;;;;;;13.38;9.15;;;;;;;17.99;100.00;101794.84;4955017;28;20031;-88